Time;durP1;ratioP1;P1;durP2;ratioP2;P2;SDS_P1;SDS_P2;PMS_P1;PMS_P2;Temp;Humidity;BMP_temperature;BMP_pressure;BME280_temperature;BME280_humidity;BME280_pressure;Samples;Min_cycle;Max_cycle;Signal;HPM_P1;HPM_P2
2021/04/24 00:00:08;;;;;;;22.48;11.68;;;11.90;99.90;;;12.10;57.61;102783.47;5074906;28;20045;-66
2021/04/24 00:02:37;;;;;;;21.98;11.40;;;11.80;99.90;;;12.15;57.63;102781.81;5075443;28;20114;-66
2021/04/24 00:05:07;;;;;;;18.60;10.65;;;11.80;99.90;;;12.20;57.59;102773.94;5075546;28;20064;-66
2021/04/24 00:07:35;;;;;;;17.57;11.13;;;11.90;99.90;;;12.13;57.76;102775.59;5075552;28;20072;-66
2021/04/24 00:10:03;;;;;;;16.77;10.70;;;11.90;99.90;;;12.12;57.92;102771.13;5057076;28;20561;-66
2021/04/24 00:12:31;;;;;;;18.65;10.13;;;11.90;99.90;;;11.48;57.95;102680.50;5075021;28;20043;-66
2021/04/24 00:14:59;;;;;;;18.80;11.77;;;11.80;99.90;;;12.08;58.09;102777.25;5075180;28;20059;-66
2021/04/24 00:17:27;;;;;;;20.45;11.55;;;11.80;99.90;;;11.95;58.59;102771.66;5073655;28;20555;-66
2021/04/24 00:19:54;;;;;;;18.60;10.88;;;11.70;99.90;;;12.02;58.52;102770.94;5075020;28;20048;-66
2021/04/24 00:22:22;;;;;;;19.63;11.88;;;11.70;99.90;;;12.01;58.28;102779.75;5075106;28;20113;-66
2021/04/24 00:24:49;;;;;;;17.08;10.75;;;11.70;99.90;;;11.98;58.68;102777.91;5074923;28;20479;-66
2021/04/24 00:27:17;;;;;;;19.17;10.57;;;11.70;99.90;;;11.93;58.94;102776.03;5074821;28;20127;-66
2021/04/24 00:29:44;;;;;;;16.38;11.25;;;11.60;99.90;;;11.89;59.12;102777.72;5074854;28;20040;-66
2021/04/24 00:32:11;;;;;;;20.33;11.25;;;11.60;99.90;;;11.90;59.22;102776.88;5074908;28;20049;-66
2021/04/24 00:34:40;;;;;;;16.65;11.48;;;11.60;99.90;;;11.90;59.39;102774.22;5074645;28;20064;-66
2021/04/24 00:37:07;;;;;;;19.77;11.15;;;11.50;99.90;;;11.81;59.54;102762.53;5074814;28;20052;-66
2021/04/24 00:39:34;;;;;;;23.30;11.90;;;11.50;99.90;;;11.75;59.94;102755.31;5074620;28;20048;-66
2021/04/24 00:42:02;;;;;;;17.35;11.23;;;11.50;99.90;;;11.74;59.81;102761.50;5074542;28;20048;-66
2021/04/24 00:44:29;;;;;;;18.88;10.63;;;11.40;99.90;;;11.76;59.88;102758.03;5073825;28;20460;-65
2021/04/24 00:46:56;;;;;;;20.30;12.27;;;11.40;99.90;;;11.70;60.37;102754.34;5073904;28;20041;-66
2021/04/24 00:49:24;;;;;;;20.75;11.55;;;11.40;99.90;;;11.75;60.11;102764.19;5074502;28;20132;-66
2021/04/24 00:51:53;;;;;;;20.02;12.10;;;11.40;99.90;;;11.75;60.21;102757.97;5074545;28;20068;-66
2021/04/24 00:54:20;;;;;;;17.70;11.27;;;11.40;99.90;;;11.70;60.25;102759.66;5074423;28;20040;-66
2021/04/24 00:56:50;;;;;;;18.80;11.25;;;11.40;99.90;;;11.67;60.38;102755.16;5074438;28;20036;-67
2021/04/24 00:59:18;;;;;;;16.02;11.15;;;11.40;99.90;;;11.68;60.45;102762.28;5074073;28;20499;-67
2021/04/24 01:01:46;;;;;;;15.60;10.32;;;11.30;99.90;;;11.65;60.47;102767.50;5074210;28;20048;-67
2021/04/24 01:04:13;;;;;;;18.95;12.00;;;11.40;99.90;;;11.62;60.75;102755.91;5074279;28;20044;-68
2021/04/24 01:06:40;;;;;;;17.55;10.68;;;11.30;99.90;;;11.67;60.47;102762.25;5074029;28;20438;-66
2021/04/24 01:09:09;;;;;;;17.52;11.23;;;11.40;99.90;;;11.61;60.55;102749.69;5073790;28;20511;-66
2021/04/24 01:11:36;;;;;;;18.80;11.38;;;11.40;99.90;;;11.64;60.80;102749.78;5074080;28;20032;-66
2021/04/24 01:14:04;;;;;;;19.00;11.60;;;11.40;99.90;;;11.62;60.84;102755.91;5073874;28;20045;-66
2021/04/24 01:16:31;;;;;;;19.33;10.38;;;11.30;99.90;;;11.58;61.04;102749.66;5074240;28;20056;-66
2021/04/24 01:18:59;;;;;;;19.75;11.38;;;11.30;99.90;;;11.34;61.54;102743.78;5074013;28;20127;-66
2021/04/24 01:21:28;;;;;;;17.00;11.45;;;11.20;99.90;;;11.34;61.92;102750.88;5072598;28;20051;-66
2021/04/24 01:23:57;;;;;;;20.02;11.63;;;11.00;99.90;;;11.17;62.60;102741.66;5074018;28;20070;-66
2021/04/24 01:26:25;;;;;;;16.55;11.10;;;10.90;99.90;;;11.21;62.51;102747.03;5073783;28;20072;-66
2021/04/24 01:28:52;;;;;;;17.40;10.32;;;10.90;99.90;;;11.24;62.57;102751.50;5073705;28;20182;-66
2021/04/24 01:31:19;;;;;;;19.27;11.48;;;11.00;99.90;;;11.15;62.92;102744.22;5073676;28;20040;-66
2021/04/24 01:33:47;;;;;;;17.85;11.88;;;10.90;99.90;;;10.99;63.37;102739.47;5073420;28;20125;-66
2021/04/24 01:36:15;;;;;;;19.75;11.13;;;10.80;99.90;;;11.00;63.59;102733.28;5073574;28;20377;-66
2021/04/24 01:38:42;;;;;;;16.35;11.10;;;10.80;99.90;;;10.87;63.81;102712.69;5073316;28;20115;-66
2021/04/24 01:41:11;;;;;;;21.98;12.05;;;10.70;99.90;;;10.93;63.90;102747.25;5073359;28;20101;-66
2021/04/24 01:43:38;;;;;;;18.35;11.55;;;10.70;99.90;;;10.98;63.99;102740.28;5073438;28;20135;-66
2021/04/24 01:46:05;;;;;;;19.00;12.80;;;10.70;99.90;;;10.97;63.93;102741.16;5073181;28;20462;-66
2021/04/24 01:48:33;;;;;;;19.70;12.25;;;10.70;99.90;;;10.55;64.01;102658.97;5073267;28;20044;-66
2021/04/24 01:51:01;;;;;;;18.52;12.50;;;10.70;99.90;;;10.99;64.15;102742.09;5073548;28;20068;-66
2021/04/24 01:53:29;;;;;;;22.00;13.48;;;10.70;99.90;;;10.75;64.22;102733.56;5073251;28;20106;-66
2021/04/24 01:55:56;;;;;;;21.85;12.88;;;10.60;99.90;;;10.66;64.71;102733.34;5072878;28;20048;-66
2021/04/24 01:58:24;;;;;;;19.02;12.82;;;10.40;99.90;;;10.63;64.99;102736.78;5073421;28;20056;-66
2021/04/24 02:00:59;;;;;;;19.13;13.02;;;10.40;99.90;;;10.46;65.39;102737.22;5073191;28;20052;-66
2021/04/24 02:03:28;;;;;;;;;;;10.30;99.90;;;10.39;65.42;102733.53;5073287;28;20045;-66
2021/04/24 02:05:57;;;;;;;25.40;13.25;;;10.20;99.90;;;10.34;65.90;102723.66;5073030;28;19928;-66
2021/04/24 02:08:32;;;;;;;26.70;13.88;;;10.10;99.90;;;10.27;66.17;102729.66;5072610;28;20041;-66
2021/04/24 02:11:00;;;;;;;24.98;13.77;;;10.10;99.90;;;10.31;66.06;102719.22;5073358;28;20036;-66
2021/04/24 02:13:32;;;;;;;20.60;13.18;;;10.10;99.90;;;10.29;66.47;102720.91;5072783;28;20446;-66
2021/04/24 02:16:00;;;;;;;19.02;13.40;;;10.10;99.90;;;10.27;66.15;102721.72;5072954;28;20083;-66
2021/04/24 02:18:29;;;;;;;21.85;13.00;;;10.10;99.90;;;10.26;65.93;102723.47;5072602;28;20052;-66
2021/04/24 02:20:57;;;;;;;20.75;13.25;;;10.00;99.90;;;10.33;65.84;102727.16;5072639;28;20045;-66
2021/04/24 02:23:24;;;;;;;24.70;13.75;;;10.10;99.90;;;10.38;65.65;102734.38;5072805;28;20052;-66
2021/04/24 02:25:52;;;;;;;20.42;13.52;;;10.10;99.90;;;10.27;65.96;102719.97;5072692;28;20056;-66
2021/04/24 02:28:19;;;;;;;22.65;14.35;;;10.10;99.90;;;10.34;65.64;102736.88;5073015;28;20080;-66
2021/04/24 02:30:48;;;;;;;20.48;14.13;;;10.10;99.90;;;10.29;65.57;102742.06;5072501;28;20131;-66
2021/04/24 02:33:15;;;;;;;22.10;13.98;;;10.10;99.90;;;10.38;65.38;102729.06;5071088;28;20111;-66
2021/04/24 02:35:47;;;;;;;24.75;14.43;;;10.10;99.90;;;10.43;65.60;102729.22;5072708;28;20037;-67
2021/04/24 02:38:19;;;;;;;23.30;14.25;;;10.10;99.90;;;10.42;65.50;102730.94;5072699;28;20102;-66
2021/04/24 02:40:47;;;;;;;21.40;14.20;;;10.20;99.90;;;10.38;65.41;102731.72;5072978;28;20060;-66
2021/04/24 02:43:14;;;;;;;21.35;13.80;;;10.10;99.90;;;10.26;65.96;102735.81;5072517;28;20065;-66
2021/04/24 02:45:43;;;;;;;22.98;14.52;;;10.00;99.90;;;10.25;65.62;102734.00;5072487;28;20048;-68
2021/04/24 02:48:12;;;;;;;22.95;14.95;;;10.00;99.90;;;10.09;65.88;102714.16;5072392;28;20044;-66
2021/04/24 02:50:39;;;;;;;25.75;15.45;;;9.90;99.90;;;10.22;65.94;102729.53;5071165;28;20147;-66
2021/04/24 02:53:07;;;;;;;25.65;15.20;;;10.00;99.90;;;10.20;66.11;102719.78;5072430;28;20056;-66
2021/04/24 02:55:34;;;;;;;22.48;14.02;;;10.00;99.90;;;10.16;65.96;102729.38;5054302;28;20450;-66
2021/04/24 02:58:02;;;;;;;21.48;14.50;;;9.90;99.90;;;10.22;65.73;102726.00;5072272;28;20442;-66
2021/04/24 03:00:31;;;;;;;24.77;15.68;;;10.00;99.90;;;10.20;66.00;102731.22;5072067;28;20414;-66
2021/04/24 03:03:04;;;;;;;24.77;15.38;;;10.00;99.90;;;10.27;65.77;102734.94;5054198;28;20052;-66
2021/04/24 03:05:34;;;;;;;20.02;14.77;;;10.00;99.90;;;10.25;65.79;102729.63;5072355;28;20071;-66
2021/04/24 03:08:02;;;;;;;28.27;14.75;;;10.00;99.90;;;10.20;65.33;102736.50;5071502;28;20191;-66
2021/04/24 03:10:29;;;;;;;22.30;14.38;;;10.00;99.90;;;10.19;65.85;102736.47;5072148;28;20040;-66
2021/04/24 03:12:57;;;;;;;21.42;14.63;;;9.90;99.90;;;10.22;65.45;102734.81;5072192;28;20106;-66
2021/04/24 03:15:24;;;;;;;26.63;14.65;;;10.00;99.90;;;10.23;65.50;102743.66;5072170;28;20044;-66
2021/04/24 03:17:52;;;;;;;26.63;15.88;;;10.00;99.90;;;9.56;65.20;102621.94;5072003;28;20053;-66
2021/04/24 03:20:22;;;;;;;31.05;16.00;;;10.00;99.90;;;10.30;65.39;102740.34;5072116;28;20044;-66
2021/04/24 03:22:51;;;;;;;30.27;16.65;;;10.00;99.90;;;10.26;65.10;102730.53;5072164;28;20119;-66
2021/04/24 03:25:19;;;;;;;26.48;16.00;;;10.00;99.90;;;10.25;64.97;102726.97;5072054;28;20053;-66
2021/04/24 03:27:46;;;;;;;23.83;15.80;;;10.00;99.90;;;10.18;64.95;102746.16;5071823;28;20060;-66
2021/04/24 03:30:15;;;;;;;24.10;15.07;;;10.00;99.90;;;10.24;65.43;102721.66;5070641;28;20052;-65
2021/04/24 03:32:43;;;;;;;26.90;15.70;;;10.00;99.90;;;9.95;64.92;102670.56;5053954;28;20049;-66
2021/04/24 03:35:11;;;;;;;28.73;15.73;;;10.00;99.90;;;10.22;65.15;102733.94;5072093;28;20044;-66
2021/04/24 03:37:39;;;;;;;24.33;15.98;;;10.00;99.90;;;10.18;65.30;102727.63;5072154;28;20044;-66
2021/04/24 03:40:10;;;;;;;29.77;16.63;;;9.90;99.90;;;10.13;65.32;102726.63;5072040;28;20048;-66
2021/04/24 03:42:37;;;;;;;26.85;16.75;;;9.90;99.90;;;9.57;65.62;102642.22;5071683;28;20091;-66
2021/04/24 03:45:17;;;;;;;28.80;16.15;;;9.80;99.90;;;10.03;65.38;102724.56;5071940;28;20110;-65
2021/04/24 03:47:47;;;;;;;26.80;16.92;;;9.80;99.90;;;10.10;65.80;102728.31;5053896;28;20667;-65
2021/04/24 03:50:15;;;;;;;27.58;17.13;;;9.80;99.90;;;10.06;65.66;102723.75;5071294;28;20543;-66
2021/04/24 03:52:43;;;;;;;26.05;16.40;;;9.80;99.90;;;10.02;65.67;102725.41;5071521;28;20106;-66
2021/04/24 03:55:13;;;;;;;26.65;16.83;;;9.80;99.90;;;9.79;66.12;102727.41;5053785;28;20439;-66
2021/04/24 03:57:42;;;;;;;29.30;17.70;;;9.70;99.90;;;9.85;66.00;102726.72;5071812;28;20795;-66
2021/04/24 04:00:13;;;;;;;30.75;17.25;;;9.60;99.90;;;9.95;66.34;102728.72;5071681;28;20040;-66
2021/04/24 04:02:49;;;;;;;32.80;18.30;;;9.70;99.90;;;9.94;65.85;102730.50;5070369;28;20159;-66
2021/04/24 04:05:19;;;;;;;29.90;17.58;;;9.70;99.90;;;9.83;66.50;102731.91;5071741;28;20048;-66
2021/04/24 04:07:46;;;;;;;26.83;16.60;;;9.60;99.90;;;9.86;66.23;102731.13;5071677;28;20044;-66
2021/04/24 04:10:17;;;;;;;28.08;17.45;;;9.60;99.90;;;9.66;66.07;102706.78;5071296;28;20040;-66
2021/04/24 04:12:52;;;;;;;32.08;18.00;;;9.60;99.90;;;9.66;66.23;102713.78;5071525;28;20060;-66
2021/04/24 04:15:22;;;;;;;28.23;17.83;;;9.60;99.90;;;9.86;66.47;102739.06;5071295;28;20560;-65
2021/04/24 04:17:54;;;;;;;26.00;16.67;;;9.60;99.90;;;9.75;66.14;102714.97;5071558;28;20136;-66
2021/04/24 04:20:21;;;;;;;29.30;18.55;;;9.60;99.90;;;9.88;66.36;102748.81;5074105;28;20049;-66
2021/04/24 04:22:49;;;;;;;32.33;18.23;;;9.60;99.90;;;9.85;66.56;102739.91;5074724;28;20036;-66
2021/04/24 04:25:17;;;;;;;29.48;17.98;;;9.60;99.90;;;9.79;66.33;102750.31;5075063;28;20048;-66
2021/04/24 04:27:45;;;;;;;27.30;17.65;;;9.60;99.90;;;9.61;66.80;102748.03;5074910;28;20083;-66
2021/04/24 04:30:15;;;;;;;29.30;19.05;;;9.40;99.90;;;9.65;67.04;102751.66;5074702;28;20048;-66
2021/04/24 04:32:43;;;;;;;30.35;18.65;;;9.40;99.90;;;9.50;67.15;102745.91;5074998;28;20049;-66
2021/04/24 04:35:13;;;;;;;29.02;18.30;;;9.30;99.90;;;9.51;67.41;102753.88;5074398;28;20345;-66
2021/04/24 04:37:41;;;;;;;29.27;18.15;;;9.30;99.90;;;9.56;67.34;102754.91;5074888;28;20392;-66
2021/04/24 04:40:12;;;;;;;27.30;18.92;;;9.30;99.90;;;9.57;67.07;102748.78;5073208;28;20555;-66
2021/04/24 04:42:41;;;;;;;30.90;19.02;;;9.30;99.90;;;9.65;67.29;102747.28;5074788;28;20103;-66
2021/04/24 04:45:13;;;;;;;32.00;18.38;;;9.40;99.90;;;9.61;66.85;102749.75;5074684;28;20110;-66
2021/04/24 04:47:40;;;;;;;31.25;18.05;;;9.40;99.90;;;9.35;67.16;102696.16;5074702;28;20062;-66
2021/04/24 04:50:12;;;;;;;28.42;18.70;;;9.40;99.90;;;9.51;67.33;102735.38;5073096;28;20440;-66
2021/04/24 04:52:40;;;;;;;27.38;17.77;;;9.40;99.90;;;9.29;68.06;102743.50;5074530;28;20083;-66
2021/04/24 04:55:09;;;;;;;29.20;18.42;;;9.20;99.90;;;9.32;67.79;102743.63;5074428;28;20037;-66
2021/04/24 04:57:37;;;;;;;32.53;19.38;;;9.10;99.90;;;9.39;68.15;102744.72;5056339;28;20055;-66
2021/04/24 05:00:10;;;;;;;28.65;18.02;;;9.10;99.90;;;9.20;68.35;102737.94;5056308;28;20048;-66
2021/04/24 05:02:38;;;;;;;29.73;18.50;;;9.10;99.90;;;9.24;68.69;102744.22;5056319;28;20084;-66
2021/04/24 05:05:07;;;;;;;31.10;19.55;;;9.00;99.90;;;9.21;68.42;102733.56;5073927;28;20189;-65
2021/04/24 05:07:35;;;;;;;31.00;18.77;;;9.10;99.90;;;9.37;68.18;102749.91;5074282;28;20110;-66
2021/04/24 05:10:21;;;;;;;32.22;18.50;;;9.10;99.90;;;9.45;68.36;102751.06;5073912;28;20048;-66
2021/04/24 05:12:49;;;;;;;29.90;17.85;;;9.20;99.90;;;9.58;67.96;102749.69;5074138;28;20080;-65
2021/04/24 05:15:17;;;;;;;33.20;19.00;;;9.30;99.90;;;9.63;67.52;102743.69;5073780;28;20141;-66
2021/04/24 05:17:45;;;;;;;32.92;17.50;;;9.40;99.90;;;9.71;67.83;102752.75;5074071;28;20117;-66
2021/04/24 05:20:14;;;;;;;30.48;18.20;;;9.50;99.90;;;9.73;67.73;102753.69;5073997;28;20060;-66
2021/04/24 05:22:44;;;;;;;29.65;18.30;;;9.50;99.90;;;9.77;67.59;102754.66;5073939;28;20135;-66
2021/04/24 05:25:14;;;;;;;33.75;19.02;;;9.50;99.90;;;9.82;67.49;102756.56;5073835;28;20144;-66
2021/04/24 05:27:44;;;;;;;33.00;19.23;;;9.60;99.90;;;9.85;67.26;102761.94;5073527;28;20048;-66
2021/04/24 05:30:13;;;;;;;28.33;17.73;;;9.60;99.90;;;9.86;66.96;102757.56;5073749;28;20287;-67
2021/04/24 05:32:42;;;;;;;31.77;18.38;;;9.60;99.90;;;9.91;67.08;102758.59;5073134;28;20385;-66
2021/04/24 05:35:12;;;;;;;29.60;17.85;;;9.60;99.90;;;9.97;66.72;102759.66;5073816;28;20048;-69
2021/04/24 05:37:39;;;;;;;27.03;17.27;;;9.70;99.90;;;10.02;66.38;102765.06;5073532;28;20084;-66
2021/04/24 05:40:11;;;;;;;29.25;18.67;;;9.80;99.90;;;9.86;66.59;102761.09;5073721;28;20397;-67
2021/04/24 05:42:39;;;;;;;31.98;18.20;;;9.70;99.90;;;9.48;67.51;102761.72;5073577;28;20056;-66
2021/04/24 05:45:11;;;;;;;28.95;18.38;;;9.40;99.90;;;9.44;68.02;102767.75;5073745;28;20044;-65
2021/04/24 05:47:39;;;;;;;25.23;17.58;;;9.30;99.90;;;9.75;68.62;102765.19;5073189;28;20040;-66
2021/04/24 05:50:10;;;;;;;29.48;18.08;;;9.50;99.90;;;9.93;68.26;102757.78;5073346;28;20049;-65
2021/04/24 05:52:38;;;;;;;30.85;18.67;;;9.60;99.90;;;10.08;67.64;102773.19;5073392;28;20072;-66
2021/04/24 05:55:11;;;;;;;32.53;17.73;;;9.80;99.90;;;10.26;66.88;102768.41;5073145;28;20121;-65
2021/04/24 05:57:39;;;;;;;27.55;17.13;;;10.00;99.90;;;10.37;66.84;102774.00;5073475;28;20098;-65
2021/04/24 06:00:11;;;;;;;27.25;17.05;;;10.10;99.90;;;10.54;66.48;102776.25;5072808;28;20120;-65
2021/04/24 06:02:38;;;;;;;26.88;17.75;;;10.20;99.90;;;10.78;65.74;102778.66;5072863;28;20041;-66
2021/04/24 06:05:09;;;;;;;26.20;17.83;;;10.40;99.90;;;10.46;65.11;102766.31;5055007;28;20151;-66
2021/04/24 06:07:37;;;;;;;27.05;17.58;;;10.40;99.90;;;10.23;65.96;102775.38;5073100;28;20082;-66
2021/04/24 06:10:07;;;;;;;27.13;16.95;;;10.10;99.90;;;10.28;65.96;102773.78;5072960;28;20068;-65
2021/04/24 06:12:35;;;;;;;27.30;17.38;;;10.10;99.90;;;10.29;65.78;102779.09;5072922;28;20503;-66
2021/04/24 06:15:03;;;;;;;31.50;18.25;;;10.10;99.90;;;9.83;67.32;102789.19;5072498;28;20136;-66
2021/04/24 06:17:31;;;;;;;26.10;16.58;;;9.80;99.90;;;10.21;66.61;102775.34;5072544;28;20049;-66
2021/04/24 06:19:58;;;;;;;26.70;17.10;;;9.90;99.90;;;10.43;66.66;102783.00;5072732;28;20055;-66
2021/04/24 06:22:26;;;;;;;25.65;16.05;;;10.10;99.90;;;10.67;66.31;102786.31;5073010;28;20044;-66
2021/04/24 06:24:54;;;;;;;28.77;16.67;;;10.30;99.90;;;10.82;65.73;102786.69;5072387;28;20119;-66
2021/04/24 06:27:21;;;;;;;30.02;17.15;;;10.50;99.90;;;10.86;64.39;102785.00;5072522;28;20103;-66
2021/04/24 06:29:49;;;;;;;32.17;16.58;;;10.60;99.90;;;10.88;63.91;102793.88;5072212;28;20044;-66
2021/04/24 06:32:16;;;;;;;24.92;16.80;;;10.70;99.90;;;10.85;64.22;102775.28;5072445;28;20071;-66
2021/04/24 06:34:44;;;;;;;24.90;16.15;;;10.70;99.90;;;10.95;64.27;102779.97;5072752;28;20071;-65
2021/04/24 06:37:11;;;;;;;26.60;16.00;;;10.70;99.90;;;11.06;63.93;102789.06;5072322;28;20044;-68
2021/04/24 06:39:39;;;;;;;26.67;15.23;;;10.80;99.90;;;11.16;63.68;102791.06;5072224;28;20399;-68
2021/04/24 06:42:07;;;;;;;23.92;14.80;;;10.90;99.90;;;11.15;63.55;102781.31;5072164;28;20118;-68
2021/04/24 06:44:35;;;;;;;26.45;15.80;;;11.00;99.90;;;10.65;65.33;102782.72;5071864;28;20048;-68
2021/04/24 06:47:02;;;;;;;23.83;15.02;;;10.50;99.90;;;10.79;65.25;102780.41;5072582;28;20106;-68
2021/04/24 06:49:30;;;;;;;22.80;14.18;;;10.50;99.90;;;10.46;65.43;102771.59;5072048;28;20403;-67
2021/04/24 06:51:57;;;;;;;22.58;14.85;;;10.40;99.90;;;10.92;65.61;102779.88;5072209;28;20123;-67
2021/04/24 06:54:25;;;;;;;24.13;14.52;;;10.50;99.90;;;10.55;64.84;102782.44;5054269;28;20053;-67
2021/04/24 06:56:53;;;;;;;25.73;15.98;;;10.40;99.90;;;11.08;64.52;102783.78;5053904;28;20040;-68
2021/04/24 06:59:20;;;;;;;22.95;14.18;;;10.70;99.90;;;11.39;63.63;102784.56;5071838;28;20048;-67
2021/04/24 07:01:48;;;;;;;20.48;13.68;;;11.10;99.90;;;11.57;63.17;102779.69;5072238;28;20048;-68
2021/04/24 07:04:16;;;;;;;22.73;14.25;;;11.30;99.90;;;11.56;63.16;102785.81;5072128;28;20162;-68
2021/04/24 07:06:43;;;;;;;21.05;13.93;;;11.30;99.90;;;11.67;62.08;102786.97;5070866;28;20154;-67
2021/04/24 07:09:10;;;;;;;22.48;14.30;;;11.50;99.90;;;11.35;62.19;102787.09;5071839;28;20056;-67
2021/04/24 07:11:38;;;;;;;23.13;14.15;;;11.20;99.90;;;10.99;62.47;102791.50;5053937;28;20557;-67
2021/04/24 07:14:06;;;;;;;24.30;13.93;;;10.90;99.90;;;10.13;63.93;102794.47;5072037;28;20049;-67
2021/04/24 07:16:34;;;;;;;26.73;14.40;;;10.20;99.90;;;10.30;64.86;102786.16;5071775;28;20095;-66
2021/04/24 07:19:01;;;;;;;24.85;14.45;;;10.00;99.90;;;9.81;66.41;102778.56;5071897;28;20438;-68
2021/04/24 07:21:29;;;;;;;23.35;14.07;;;9.70;99.90;;;9.78;67.00;102773.19;5053419;28;20036;-68
2021/04/24 07:23:56;;;;;;;24.33;14.45;;;9.60;99.90;;;9.31;67.70;102789.34;5071616;28;20048;-68
2021/04/24 07:26:24;;;;;;;23.38;14.18;;;9.20;99.90;;;10.07;68.01;102783.69;5053866;28;20045;-67
2021/04/24 07:28:51;;;;;;;26.02;14.07;;;9.60;99.90;;;10.24;66.25;102785.13;5071302;28;20044;-68
2021/04/24 07:31:21;;;;;;;25.75;15.13;;;9.90;99.90;;;10.51;66.26;102786.75;5071408;28;20123;-68
2021/04/24 07:33:48;;;;;;;20.27;13.13;;;10.20;99.90;;;10.82;64.38;102783.13;5071804;28;20388;-69
2021/04/24 07:36:18;;;;;;;26.70;13.45;;;10.50;99.90;;;11.16;63.60;102780.47;5071762;28;20044;-68
2021/04/24 07:38:46;;;;;;;21.92;13.55;;;10.90;99.90;;;10.50;64.82;102778.78;5072075;28;20048;-68
2021/04/24 07:41:14;;;;;;;16.20;11.55;;;10.50;99.90;;;10.23;64.06;102792.16;5071887;28;20525;-69
2021/04/24 07:43:41;;;;;;;20.77;12.30;;;10.20;99.90;;;9.92;63.82;102753.34;5070343;28;20045;-68
2021/04/24 07:46:09;;;;;;;17.80;10.80;;;9.90;99.90;;;10.12;62.32;102772.47;5071670;28;20048;-68
2021/04/24 07:48:37;;;;;;;22.65;11.90;;;9.90;99.90;;;10.05;62.86;102773.09;5071445;28;20044;-68
2021/04/24 07:51:05;;;;;;;16.48;11.50;;;9.90;99.90;;;9.19;64.79;102659.59;5053616;28;20147;-67
2021/04/24 07:53:34;;;;;;;17.05;10.57;;;9.70;99.90;;;10.18;62.44;102750.56;5071846;28;20048;-68
2021/04/24 07:56:01;;;;;;;19.05;11.20;;;10.00;99.90;;;9.71;61.95;102664.63;5057147;28;20127;-67
2021/04/24 07:58:29;;;;;;;15.32;10.40;;;10.10;99.90;;;10.75;61.58;102781.19;5075068;28;20044;-67
2021/04/24 08:00:56;;;;;;;15.73;10.55;;;10.40;99.90;;;11.06;59.78;102775.81;5075029;28;20110;-70
2021/04/24 08:03:24;;;;;;;16.13;10.23;;;10.80;99.90;;;11.21;59.44;102780.56;5075143;28;20051;-70
2021/04/24 08:05:52;;;;;;;13.25;8.82;;;10.90;99.90;;;11.30;57.82;102756.97;5073998;28;20048;-70
2021/04/24 08:08:20;;;;;;;13.98;9.05;;;11.20;99.90;;;11.69;56.49;102768.47;5075009;28;20123;-67
2021/04/24 08:10:47;;;;;;;12.27;9.88;;;11.40;99.90;;;12.03;55.79;102776.25;5074920;28;20052;-67
2021/04/24 08:13:15;;;;;;;13.20;9.90;;;11.70;99.90;;;12.27;55.24;102779.38;5057180;28;20091;-68
2021/04/24 08:15:42;;;;;;;13.65;8.73;;;12.00;99.90;;;11.73;55.14;102776.50;5075149;28;20102;-68
2021/04/24 08:18:10;;;;;;;12.65;9.25;;;11.80;99.90;;;11.61;56.69;102776.19;5075415;28;20052;-67
2021/04/24 08:20:37;;;;;;;13.02;8.98;;;11.40;99.90;;;11.49;55.72;102664.66;5074888;28;20071;-67
2021/04/24 08:23:06;;;;;;;13.43;8.38;;;11.80;99.90;;;12.53;54.38;102783.44;5074656;28;20044;-67
2021/04/24 08:25:34;;;;;;;16.20;8.68;;;12.20;99.90;;;11.68;53.52;102775.53;5074803;28;20118;-68
2021/04/24 08:28:01;;;;;;;11.20;8.60;;;11.80;99.90;;;11.78;54.73;102780.19;5056703;28;20051;-67
2021/04/24 08:30:30;;;;;;;14.30;8.90;;;11.60;99.90;;;11.68;54.48;102788.78;5074761;28;20044;-68
2021/04/24 08:32:57;;;;;;;12.80;9.15;;;11.50;99.90;;;11.84;56.13;102775.84;5074459;28;20101;-67
2021/04/24 08:35:25;;;;;;;13.20;9.27;;;11.60;99.90;;;11.85;53.60;102773.22;5075404;28;20079;-67
2021/04/24 08:37:52;;;;;;;15.20;10.05;;;11.70;99.90;;;11.29;55.01;102813.44;5074781;28;20052;-69
2021/04/24 08:40:21;;;;;;;12.93;8.27;;;11.30;99.90;;;11.49;54.63;102775.97;5074800;28;20053;-68
2021/04/24 08:42:48;;;;;;;13.05;8.80;;;11.30;99.90;;;11.73;54.82;102792.41;5074653;28;20052;-68
2021/04/24 08:45:18;;;;;;;13.18;8.95;;;11.40;99.90;;;11.23;56.61;102708.22;5074613;28;20040;-68
2021/04/24 08:47:48;;;;;;;13.02;9.27;;;11.40;99.90;;;12.38;55.50;102791.13;5074265;28;20133;-69
2021/04/24 08:50:20;;;;;;;13.05;9.25;;;11.90;99.90;;;12.73;54.00;102794.41;5074183;28;20090;-67
2021/04/24 08:52:49;;;;;;;14.45;10.27;;;12.40;99.90;;;12.69;53.14;102792.56;5074122;28;20037;-68
2021/04/24 08:55:21;;;;;;;13.77;8.95;;;12.60;99.90;;;12.35;53.22;102782.22;5074350;28;20115;-68
2021/04/24 08:57:49;;;;;;;13.90;9.85;;;12.30;99.90;;;12.88;54.00;102788.47;5074260;28;20431;-68
2021/04/24 09:00:22;;;;;;;11.02;9.05;;;12.50;99.90;;;13.17;53.17;102785.44;5074431;28;20048;-67
2021/04/24 09:02:49;;;;;;;13.50;8.95;;;12.90;99.90;;;12.38;53.17;102779.59;5056118;28;20104;-68
2021/04/24 09:05:20;;;;;;;12.70;9.35;;;12.50;99.90;;;11.82;55.58;102780.22;5072434;28;20472;-68
2021/04/24 09:07:48;;;;;;;12.82;8.65;;;11.80;99.90;;;12.56;54.78;102780.81;5055713;28;20044;-67
2021/04/24 09:10:16;;;;;;;10.35;8.98;;;12.20;99.90;;;11.67;54.55;102526.31;5073417;28;20060;-69
2021/04/24 09:12:47;;;;;;;13.43;9.55;;;12.70;99.90;;;13.61;52.33;102785.22;5073988;28;20127;-70
2021/04/24 09:15:19;;;;;;;10.70;8.93;;;13.30;99.90;;;13.75;53.15;102762.34;5056001;28;20047;-72
2021/04/24 09:17:57;;;;;;;14.85;9.35;;;13.50;99.90;;;14.10;51.20;102769.00;5073894;28;20063;-71
2021/04/24 09:20:28;;;;;;;16.40;9.48;;;13.90;99.90;;;13.97;51.80;102785.69;5073879;28;20045;-72
2021/04/24 09:23:04;;;;;;;21.45;13.43;;;13.90;99.90;;;14.34;51.61;102796.81;5073678;28;20120;-71
2021/04/24 09:25:35;;;;;;;11.23;9.43;;;14.10;99.90;;;14.22;51.85;102793.09;5055778;28;20100;-71
2021/04/24 09:28:05;;;;;;;14.13;9.55;;;14.10;99.90;;;14.43;51.02;102783.63;5074140;28;20056;-70
2021/04/24 09:30:35;;;;;;;14.80;10.07;;;14.20;99.90;;;14.87;50.46;102783.13;5073733;28;20063;-70
2021/04/24 09:33:07;;;;;;;12.00;9.13;;;14.60;99.90;;;15.21;50.09;102795.88;5073536;28;20120;-69
2021/04/24 09:35:46;;;;;;;17.85;9.32;;;14.90;99.90;;;15.08;48.47;102786.88;5073656;28;20052;-71
2021/04/24 09:38:28;;;;;;;16.20;9.68;;;15.00;99.90;;;14.84;50.18;102781.34;5073310;28;20544;-69
2021/04/24 09:41:23;;;;;;;10.95;9.23;;;14.70;99.90;;;15.15;49.04;102764.72;5073339;28;20053;-71
2021/04/24 09:44:00;;;;;;;13.35;9.48;;;15.00;99.90;;;15.30;49.74;102780.81;5055668;28;20144;-71
2021/04/24 09:46:31;;;;;;;14.02;9.35;;;15.10;99.90;;;15.38;48.57;102783.53;5055305;28;20044;-70
2021/04/24 09:49:21;;;;;;;11.90;8.85;;;15.20;99.90;;;15.47;47.55;102790.72;5073009;28;20053;-70
2021/04/24 09:51:52;;;;;;;18.13;10.00;;;15.20;99.90;;;15.38;47.51;102780.88;5073257;28;20114;-70
2021/04/24 09:54:21;;;;;;;10.95;8.82;;;15.20;99.90;;;15.30;47.21;102755.94;5073079;28;20067;-71
2021/04/24 09:56:59;;;;;;;11.00;8.50;;;15.20;99.90;;;15.47;46.91;102774.72;5071789;28;20048;-70
2021/04/24 09:59:28;;;;;;;11.13;8.05;;;15.30;99.90;;;15.38;46.25;102755.09;5073220;28;20048;-71
2021/04/24 10:02:02;;;;;;;12.27;8.20;;;15.30;99.90;;;15.32;45.97;102757.72;5072749;28;20464;-71
2021/04/24 10:04:30;;;;;;;12.85;8.55;;;15.20;99.90;;;15.44;46.42;102754.28;5073179;28;20167;-71
2021/04/24 10:06:58;;;;;;;11.38;7.85;;;15.20;99.90;;;15.65;46.16;102762.41;5054924;28;20135;-70
2021/04/24 10:09:29;;;;;;;10.00;7.30;;;15.30;99.90;;;15.58;45.34;102746.34;5072899;28;20162;-70
2021/04/24 10:12:10;;;;;;;15.35;9.45;;;15.40;99.90;;;15.71;45.67;102746.41;5072735;28;20052;-70